createdAt,value
2022-11-16T00:00:15.924Z,58.31
2022-11-16T00:02:42.217Z,58.29
2022-11-16T00:05:08.533Z,56.77
2022-11-16T00:07:35.107Z,56.82
2022-11-16T00:10:01.577Z,56.38
2022-11-16T00:12:27.993Z,56.33
2022-11-16T00:15:00.422Z,54.73
2022-11-16T00:17:30.635Z,53.47
2022-11-16T00:19:58.038Z,56.69
2022-11-16T00:25:13.616Z,52.74
2022-11-16T00:27:39.906Z,53.70
2022-11-16T00:30:10.392Z,52.66
2022-11-16T00:32:49.850Z,52.33
2022-11-16T00:35:16.296Z,54.09
2022-11-16T00:37:42.657Z,56.93
2022-11-16T00:40:09.869Z,58.46
2022-11-16T00:42:36.122Z,55.47
2022-11-16T00:45:02.535Z,59.45
2022-11-16T00:47:28.835Z,58.88
2022-11-16T00:49:55.100Z,57.94
2022-11-16T00:52:21.289Z,55.29
2022-11-16T00:54:47.583Z,55.06
2022-11-16T00:57:13.769Z,55.38
2022-11-16T00:59:39.983Z,56.03
2022-11-16T01:02:06.182Z,55.40
2022-11-16T01:04:32.399Z,55.63
2022-11-16T01:06:58.650Z,55.25
2022-11-16T01:09:24.888Z,57.40
2022-11-16T01:11:51.084Z,58.55
2022-11-16T01:14:17.408Z,60.13
2022-11-16T01:16:43.675Z,61.41
2022-11-16T01:19:09.881Z,59.29
2022-11-16T01:21:36.091Z,57.67
2022-11-16T01:24:02.297Z,56.71
2022-11-16T01:26:28.477Z,56.32
2022-11-16T01:28:54.681Z,56.05
2022-11-16T01:31:20.948Z,56.32
2022-11-16T01:33:47.209Z,56.08
2022-11-16T01:36:13.424Z,56.36
2022-11-16T01:38:39.638Z,57.78
2022-11-16T01:41:05.951Z,57.84
2022-11-16T01:43:32.178Z,57.34
2022-11-16T01:45:58.356Z,57.23
2022-11-16T01:48:24.670Z,62.05
2022-11-16T01:50:50.958Z,60.19
2022-11-16T01:53:17.231Z,58.53
2022-11-16T01:55:43.540Z,58.33
2022-11-16T01:58:09.801Z,57.15
2022-11-16T02:00:35.994Z,57.05
2022-11-16T02:03:02.211Z,57.34
2022-11-16T02:05:28.439Z,57.17
2022-11-16T02:07:54.725Z,58.04
2022-11-16T02:10:20.918Z,59.46
2022-11-16T02:12:47.137Z,59.50
2022-11-16T02:15:13.439Z,58.27
2022-11-16T02:17:39.717Z,59.62
2022-11-16T02:20:08.750Z,57.56
2022-11-16T02:22:38.080Z,58.25
2022-11-16T02:25:09.473Z,56.45
2022-11-16T02:27:38.965Z,56.65
2022-11-16T02:30:05.259Z,56.40
2022-11-16T02:32:31.504Z,56.00
2022-11-16T02:34:57.761Z,56.30
2022-11-16T02:37:24.004Z,56.37
2022-11-16T02:39:50.365Z,57.25
2022-11-16T02:42:16.635Z,58.34
2022-11-16T02:44:42.911Z,58.16
2022-11-16T02:47:09.149Z,56.75
2022-11-16T02:49:35.406Z,58.24
2022-11-16T02:52:01.635Z,58.31
2022-11-16T02:54:27.967Z,57.10
2022-11-16T02:56:54.289Z,56.74
2022-11-16T02:59:20.523Z,56.92
2022-11-16T03:01:46.761Z,58.70
2022-11-16T03:04:13.029Z,58.45
2022-11-16T03:06:39.329Z,58.24
2022-11-16T03:09:05.618Z,60.41
2022-11-16T03:11:31.860Z,60.26
2022-11-16T03:13:58.305Z,59.25
2022-11-16T03:16:24.642Z,57.38
2022-11-16T03:18:50.851Z,57.51
2022-11-16T03:21:17.045Z,58.16
2022-11-16T03:23:43.252Z,58.83
2022-11-16T03:26:09.464Z,61.54
2022-11-16T03:28:35.901Z,63.31
2022-11-16T03:31:02.439Z,61.90
2022-11-16T03:33:28.761Z,59.77
2022-11-16T03:35:55.126Z,58.54
2022-11-16T03:38:21.500Z,56.98
2022-11-16T03:40:48.071Z,57.13
2022-11-16T03:43:14.319Z,56.28
2022-11-16T03:45:43.122Z,55.88
2022-11-16T03:48:09.348Z,57.16
2022-11-16T03:50:35.654Z,57.20
2022-11-16T03:53:01.871Z,56.26
2022-11-16T03:55:28.140Z,55.66
2022-11-16T03:57:54.418Z,56.27
2022-11-16T04:00:20.660Z,55.56
2022-11-16T04:02:51.139Z,55.77
2022-11-16T04:05:17.409Z,54.45
2022-11-16T04:07:43.627Z,54.13
2022-11-16T04:10:09.910Z,55.16
2022-11-16T04:12:36.217Z,55.45
2022-11-16T04:15:02.509Z,64.56
2022-11-16T04:17:37.601Z,64.23
2022-11-16T04:20:03.882Z,62.84
2022-11-16T04:22:33.270Z,59.50
2022-11-16T04:24:59.538Z,59.26
2022-11-16T04:27:36.057Z,58.13
2022-11-16T04:30:02.490Z,60.22
2022-11-16T04:32:31.560Z,65.88
2022-11-16T04:35:02.350Z,66.88
2022-11-16T04:37:28.721Z,63.72
2022-11-16T04:39:54.910Z,59.68
2022-11-16T04:42:21.151Z,56.67
2022-11-16T04:44:47.428Z,56.00
2022-11-16T04:47:13.634Z,57.83
2022-11-16T04:49:39.903Z,59.12
2022-11-16T04:52:06.131Z,60.67
2022-11-16T04:54:32.344Z,63.79
2022-11-16T04:56:58.636Z,62.95
2022-11-16T04:59:24.985Z,58.80
2022-11-16T05:01:51.282Z,56.10
2022-11-16T05:04:20.034Z,55.70
2022-11-16T05:06:46.270Z,56.44
2022-11-16T05:09:12.493Z,58.80
2022-11-16T05:11:38.808Z,59.02
2022-11-16T05:14:05.164Z,57.66
2022-11-16T05:16:31.371Z,56.82
2022-11-16T05:18:57.611Z,56.92
2022-11-16T05:21:23.932Z,59.22
2022-11-16T05:23:50.320Z,58.12
2022-11-16T05:26:16.555Z,58.44
2022-11-16T05:28:42.736Z,59.63
2022-11-16T05:31:09.038Z,58.12
2022-11-16T05:33:35.305Z,58.32
2022-11-16T05:36:01.591Z,57.17
2022-11-16T05:38:27.854Z,56.34
2022-11-16T05:40:54.108Z,57.74
2022-11-16T05:43:20.337Z,58.75
2022-11-16T05:45:46.546Z,60.91
2022-11-16T05:48:12.772Z,63.49
2022-11-16T05:50:42.785Z,63.37
2022-11-16T05:53:09.521Z,66.72
2022-11-16T05:55:36.938Z,66.65
2022-11-16T05:58:04.786Z,63.65
2022-11-16T06:00:31.031Z,64.07
2022-11-16T06:02:57.323Z,62.52
2022-11-16T06:05:23.590Z,60.66
2022-11-16T06:07:49.875Z,60.91
2022-11-16T06:10:17.246Z,58.94
2022-11-16T06:12:43.708Z,61.98
2022-11-16T06:15:10.061Z,63.55
2022-11-16T06:17:36.321Z,62.32
2022-11-16T06:20:03.793Z,62.32
2022-11-16T06:22:30.968Z,61.59
2022-11-16T06:25:00.169Z,58.95
2022-11-16T06:27:26.389Z,57.53
2022-11-16T06:29:52.616Z,63.54
2022-11-16T06:32:18.780Z,65.93
2022-11-16T06:34:44.977Z,64.82
2022-11-16T06:37:13.748Z,67.33
2022-11-16T06:42:15.917Z,74.39
2022-11-16T06:44:45.689Z,74.26
2022-11-16T06:47:12.602Z,73.34
2022-11-16T06:49:41.778Z,67.79
2022-11-16T06:52:08.134Z,62.84
2022-11-16T06:54:35.660Z,61.83
2022-11-16T06:57:04.352Z,61.37
2022-11-16T06:59:30.639Z,61.46
2022-11-16T07:01:59.766Z,59.96
2022-11-16T07:04:26.168Z,58.39
2022-11-16T07:06:52.618Z,61.49
2022-11-16T07:09:18.867Z,63.98
2022-11-16T07:11:45.067Z,62.13
2022-11-16T07:14:12.648Z,64.39
2022-11-16T07:16:38.864Z,67.98
2022-11-16T07:27:29.365Z,58.99
2022-11-16T07:29:55.577Z,58.11
2022-11-16T07:32:24.549Z,58.09
2022-11-16T07:34:50.871Z,58.46
2022-11-16T10:00:18.730Z,56.44
2022-11-16T10:02:44.905Z,54.23
2022-11-16T10:10:28.690Z,50.51
2022-11-16T12:19:42.385Z,47.11
2022-11-16T12:32:55.574Z,43.75
2022-11-16T17:13:42.480Z,50.07
2022-11-16T18:01:57.610Z,51.76
2022-11-16T18:04:24.656Z,51.92
2022-11-16T18:55:27.541Z,52.29
2022-11-16T19:03:22.221Z,46.74
2022-11-16T19:08:22.921Z,46.12
2022-11-16T19:10:52.239Z,49.91
2022-11-16T19:26:41.929Z,59.83
2022-11-16T19:31:38.626Z,59.50
2022-11-16T19:34:07.615Z,53.11
2022-11-16T19:36:36.022Z,54.26
2022-11-16T19:39:02.207Z,59.13
2022-11-16T19:41:28.439Z,60.12
2022-11-16T19:43:54.894Z,56.83
2022-11-16T19:48:48.708Z,60.61
2022-11-16T19:51:14.979Z,54.68
2022-11-16T19:53:41.178Z,57.04
2022-11-16T19:56:07.483Z,59.35
2022-11-16T19:58:33.711Z,59.23
2022-11-16T20:01:02.121Z,59.28
2022-11-16T20:03:28.524Z,60.44
2022-11-16T20:05:54.768Z,60.93
2022-11-16T20:08:27.880Z,60.89
2022-11-16T20:32:20.569Z,56.85
2022-11-16T20:45:31.645Z,49.02
2022-11-16T20:47:58.994Z,52.88
2022-11-16T20:50:28.296Z,52.10
2022-11-16T21:20:26.968Z,51.29
2022-11-16T21:23:00.016Z,52.08
2022-11-16T21:25:28.079Z,49.88
2022-11-16T21:27:54.362Z,51.56
2022-11-16T21:30:20.556Z,51.63
2022-11-16T21:32:47.292Z,50.94
2022-11-16T21:35:21.425Z,49.62
2022-11-16T21:48:44.237Z,45.87
2022-11-16T22:07:15.872Z,41.97
2022-11-16T22:20:37.305Z,39.75
2022-11-16T22:31:02.620Z,42.69
2022-11-16T22:44:09.385Z,47.41
2022-11-16T22:49:18.254Z,50.75
2022-11-16T22:51:47.760Z,46.25
2022-11-16T22:54:14.470Z,46.25
2022-11-16T23:23:41.035Z,41.81
2022-11-16T23:50:24.334Z,44.50
2022-11-16T23:55:32.666Z,43.46
2022-11-16T23:58:00.549Z,42.69
